createdAt,value
2019-04-06T00:00:58.165Z,100.00
2019-04-06T00:03:31.147Z,100.00
2019-04-06T00:06:04.229Z,100.00
2019-04-06T00:08:36.848Z,100.00
2019-04-06T00:11:09.390Z,100.00
2019-04-06T00:13:43.014Z,100.00
2019-04-06T00:16:16.287Z,100.00
2019-04-06T00:18:50.479Z,100.00
2019-04-06T00:21:23.410Z,100.00
2019-04-06T00:23:56.783Z,100.00
2019-04-06T00:26:29.804Z,100.00
2019-04-06T00:29:04.541Z,100.00
2019-04-06T00:31:43.534Z,100.00
2019-04-06T00:34:17.450Z,100.00
2019-04-06T00:36:51.016Z,100.00
2019-04-06T00:39:24.492Z,100.00
2019-04-06T00:41:57.979Z,100.00
2019-04-06T00:44:31.336Z,100.00
2019-04-06T00:47:04.632Z,100.00
2019-04-06T00:49:37.540Z,100.00
2019-04-06T00:52:10.076Z,100.00
2019-04-06T00:54:42.935Z,100.00
2019-04-06T00:57:16.520Z,100.00
2019-04-06T00:59:50.388Z,100.00
2019-04-06T01:02:25.178Z,100.00
2019-04-06T01:04:58.097Z,100.00
2019-04-06T01:07:30.723Z,100.00
2019-04-06T01:10:04.193Z,100.00
2019-04-06T01:12:37.221Z,100.00
2019-04-06T01:15:10.369Z,100.00
2019-04-06T01:17:43.821Z,100.00
2019-04-06T01:20:16.724Z,100.00
2019-04-06T01:22:49.687Z,100.00
2019-04-06T01:25:22.714Z,100.00
2019-04-06T01:27:56.234Z,100.00
2019-04-06T01:30:29.702Z,100.00
2019-04-06T01:33:02.765Z,100.00
2019-04-06T01:35:36.137Z,100.00
2019-04-06T01:38:08.911Z,100.00
2019-04-06T01:40:41.941Z,100.00
2019-04-06T01:43:15.389Z,100.00
2019-04-06T01:45:48.941Z,100.00
2019-04-06T01:48:21.995Z,100.00
2019-04-06T01:50:56.429Z,100.00
2019-04-06T01:53:29.100Z,100.00
2019-04-06T01:56:02.890Z,100.00
2019-04-06T01:58:36.675Z,100.00
2019-04-06T02:01:31.938Z,100.00
2019-04-06T02:04:04.670Z,100.00
2019-04-06T02:06:37.707Z,100.00
2019-04-06T02:09:10.684Z,100.00
2019-04-06T02:11:44.100Z,100.00
2019-04-06T02:14:19.834Z,100.00
2019-04-06T02:16:53.412Z,100.00
2019-04-06T02:19:26.385Z,100.00
2019-04-06T02:21:59.370Z,100.00
2019-04-06T02:24:32.779Z,100.00
2019-04-06T02:27:05.876Z,100.00
2019-04-06T02:29:39.062Z,100.00
2019-04-06T02:32:38.023Z,100.00
2019-04-06T02:35:36.763Z,100.00
2019-04-06T02:38:44.213Z,100.00
2019-04-06T02:41:22.545Z,100.00
2019-04-06T02:43:55.941Z,100.00
2019-04-06T02:46:31.166Z,100.00
2019-04-06T02:49:04.501Z,100.00
2019-04-06T02:51:37.801Z,100.00
2019-04-06T02:54:10.434Z,100.00
2019-04-06T02:56:46.369Z,100.00
2019-04-06T02:59:17.608Z,100.00
2019-04-06T03:01:51.011Z,100.00
2019-04-06T03:04:24.001Z,100.00
2019-04-06T03:06:57.851Z,100.00
2019-04-06T03:09:30.447Z,100.00
2019-04-06T03:12:03.768Z,100.00
2019-04-06T03:14:36.496Z,100.00
2019-04-06T03:17:09.814Z,100.00
2019-04-06T03:19:43.923Z,100.00
2019-04-06T03:22:17.454Z,100.00
2019-04-06T03:24:50.459Z,100.00
2019-04-06T03:27:24.199Z,100.00
2019-04-06T03:29:59.166Z,100.00
2019-04-06T03:32:32.937Z,100.00
2019-04-06T03:35:06.121Z,100.00
2019-04-06T03:37:39.922Z,100.00
2019-04-06T03:40:13.456Z,100.00
2019-04-06T03:42:46.760Z,100.00
2019-04-06T03:45:20.142Z,100.00
2019-04-06T03:47:53.886Z,100.00
2019-04-06T03:50:27.777Z,100.00
2019-04-06T03:53:00.953Z,100.00
2019-04-06T03:55:33.343Z,100.00
2019-04-06T03:58:06.411Z,100.00
2019-04-06T04:00:39.413Z,100.00
2019-04-06T04:03:13.054Z,100.00
2019-04-06T04:05:46.089Z,100.00
2019-04-06T04:08:19.988Z,100.00
2019-04-06T04:10:52.208Z,100.00
2019-04-06T04:13:25.769Z,100.00
2019-04-06T04:15:59.761Z,100.00
2019-04-06T04:18:33.165Z,100.00
2019-04-06T04:21:09.039Z,100.00
2019-04-06T04:23:42.019Z,100.00
2019-04-06T04:26:15.158Z,100.00
2019-04-06T04:28:48.619Z,100.00
2019-04-06T04:31:21.851Z,100.00
2019-04-06T04:33:55.098Z,100.00
2019-04-06T04:36:28.937Z,100.00
2019-04-06T04:39:03.586Z,100.00
2019-04-06T04:41:39.389Z,100.00
2019-04-06T04:44:12.374Z,100.00
2019-04-06T04:46:44.961Z,100.00
2019-04-06T04:49:18.372Z,100.00
2019-04-06T04:51:51.729Z,100.00
2019-04-06T04:54:24.315Z,100.00
2019-04-06T04:56:57.312Z,100.00
2019-04-06T04:59:30.707Z,100.00
2019-04-06T05:02:05.826Z,100.00
2019-04-06T05:04:38.755Z,100.00
2019-04-06T05:07:11.302Z,100.00
2019-04-06T05:09:44.724Z,100.00
2019-04-06T05:12:18.714Z,100.00
2019-04-06T05:15:02.388Z,100.00
2019-04-06T05:17:35.919Z,100.00
2019-04-06T05:20:08.829Z,100.00
2019-04-06T05:22:41.792Z,100.00
2019-04-06T05:25:15.046Z,100.00
2019-04-06T05:27:52.696Z,100.00
2019-04-06T05:30:22.237Z,100.00
2019-04-06T05:32:55.189Z,100.00
2019-04-06T05:35:28.099Z,100.00
2019-04-06T05:38:01.599Z,100.00
2019-04-06T05:40:34.552Z,100.00
2019-04-06T05:43:08.101Z,100.00
2019-04-06T05:45:41.778Z,100.00
2019-04-06T05:48:15.281Z,100.00
2019-04-06T05:50:49.449Z,100.00
2019-04-06T05:53:22.689Z,100.00
2019-04-06T05:55:55.662Z,100.00
2019-04-06T05:58:28.268Z,100.00
2019-04-06T06:01:03.891Z,100.00
2019-04-06T06:03:40.141Z,100.00
2019-04-06T06:06:12.775Z,100.00
2019-04-06T06:08:46.685Z,100.00
2019-04-06T06:11:19.535Z,100.00
2019-04-06T06:13:52.547Z,100.00
2019-04-06T06:16:26.079Z,100.00
2019-04-06T06:19:00.853Z,100.00
2019-04-06T06:21:34.165Z,100.00
2019-04-06T06:24:07.180Z,100.00
2019-04-06T06:26:39.738Z,100.00
2019-04-06T06:29:13.519Z,100.00
2019-04-06T06:31:46.584Z,100.00
2019-04-06T06:34:18.875Z,100.00
2019-04-06T06:36:52.329Z,100.00
2019-04-06T06:39:26.002Z,100.00
2019-04-06T06:41:59.225Z,100.00
2019-04-06T06:44:31.447Z,100.00
2019-04-06T06:47:04.514Z,100.00
2019-04-06T06:49:37.743Z,100.00
2019-04-06T06:52:10.661Z,100.00
2019-04-06T06:54:44.506Z,100.00
2019-04-06T06:57:18.333Z,100.00
2019-04-06T06:59:52.153Z,100.00
2019-04-06T07:02:25.233Z,100.00
2019-04-06T07:04:58.684Z,100.00
2019-04-06T07:07:31.364Z,100.00
2019-04-06T07:10:06.242Z,100.00
2019-04-06T07:12:40.070Z,100.00
2019-04-06T07:15:13.636Z,100.00
2019-04-06T07:17:46.482Z,100.00
2019-04-06T07:20:19.645Z,100.00
2019-04-06T07:22:52.615Z,100.00
2019-04-06T07:25:25.386Z,100.00
2019-04-06T07:27:58.958Z,100.00
2019-04-06T07:30:32.404Z,100.00
2019-04-06T07:33:05.100Z,100.00
2019-04-06T07:35:38.169Z,100.00
2019-04-06T07:38:10.794Z,100.00
2019-04-06T07:40:44.237Z,100.00
2019-04-06T07:43:17.231Z,100.00
2019-04-06T07:45:50.737Z,100.00
2019-04-06T07:48:24.440Z,100.00
2019-04-06T07:50:57.836Z,100.00
2019-04-06T07:53:31.342Z,100.00
2019-04-06T07:56:04.230Z,100.00
2019-04-06T07:58:48.024Z,100.00
2019-04-06T08:01:14.040Z,100.00
2019-04-06T08:03:47.231Z,100.00
2019-04-06T08:06:20.969Z,100.00
2019-04-06T08:08:54.739Z,100.00
2019-04-06T08:11:27.408Z,100.00
2019-04-06T08:14:00.971Z,100.00
2019-04-06T08:16:34.301Z,100.00
2019-04-06T08:19:07.246Z,100.00
2019-04-06T08:21:40.857Z,100.00
2019-04-06T08:24:14.286Z,100.00
2019-04-06T08:26:46.971Z,100.00
2019-04-06T08:29:19.865Z,100.00
2019-04-06T08:31:53.254Z,100.00
2019-04-06T08:34:27.126Z,100.00
2019-04-06T08:37:00.162Z,100.00
2019-04-06T08:39:33.341Z,100.00
2019-04-06T08:42:06.571Z,100.00
2019-04-06T08:44:40.416Z,100.00
2019-04-06T08:47:13.462Z,100.00
2019-04-06T08:49:47.036Z,100.00
2019-04-06T08:52:20.194Z,100.00
2019-04-06T08:54:53.786Z,100.00
2019-04-06T08:57:27.728Z,100.00
2019-04-06T09:00:00.404Z,100.00
2019-04-06T09:02:34.014Z,100.00
2019-04-06T09:05:07.483Z,100.00
2019-04-06T09:07:40.929Z,100.00
2019-04-06T09:10:14.701Z,100.00
2019-04-06T09:12:48.085Z,100.00
2019-04-06T09:15:20.784Z,100.00
2019-04-06T09:17:53.473Z,100.00
2019-04-06T09:20:26.629Z,100.00
2019-04-06T09:23:00.298Z,100.00
2019-04-06T09:25:34.882Z,100.00
2019-04-06T09:28:08.372Z,100.00
2019-04-06T09:30:41.751Z,100.00
2019-04-06T09:33:14.311Z,100.00
2019-04-06T09:35:47.156Z,100.00
2019-04-06T09:38:20.209Z,100.00
2019-04-06T09:40:55.397Z,100.00
2019-04-06T09:43:29.119Z,100.00
2019-04-06T09:46:27.530Z,100.00
2019-04-06T09:49:22.774Z,97.57
2019-04-06T09:52:30.790Z,98.35
2019-04-06T09:55:25.199Z,99.88
2019-04-06T09:58:14.014Z,99.61
2019-04-06T10:01:01.760Z,98.23
2019-04-06T10:04:00.883Z,90.52
2019-04-06T10:06:56.794Z,78.85
2019-04-06T10:09:45.945Z,83.45
2019-04-06T10:12:35.826Z,84.78
2019-04-06T10:15:19.465Z,83.53
2019-04-06T10:18:14.549Z,79.80
2019-04-06T10:21:06.927Z,81.17
2019-04-06T10:24:02.195Z,80.29
2019-04-06T10:27:04.317Z,75.57
2019-04-06T10:30:02.377Z,79.68
2019-04-06T10:32:47.776Z,81.42
2019-04-06T10:35:58.193Z,77.74
2019-04-06T10:39:02.944Z,78.17
2019-04-06T10:41:57.746Z,87.54
2019-04-06T10:44:53.969Z,80.81
2019-04-06T10:47:49.887Z,80.55
2019-04-06T10:50:42.432Z,75.48
2019-04-06T10:53:40.759Z,78.15
2019-04-06T10:56:35.503Z,74.04
2019-04-06T10:59:31.149Z,75.73
2019-04-06T11:02:22.242Z,73.95
2019-04-06T11:05:15.328Z,69.42
2019-04-06T11:07:53.737Z,70.57
2019-04-06T11:10:52.637Z,69.46
2019-04-06T11:13:43.343Z,70.21
2019-04-06T11:16:38.615Z,70.95
2019-04-06T11:19:37.203Z,71.80
2019-04-06T11:22:32.333Z,71.33
2019-04-06T11:25:25.084Z,75.66
2019-04-06T11:28:17.415Z,74.60
2019-04-06T11:31:05.181Z,72.82
2019-04-06T11:33:53.486Z,70.43
2019-04-06T11:36:54.024Z,69.72
2019-04-06T11:39:44.959Z,74.53
2019-04-06T11:42:24.893Z,72.12
2019-04-06T11:45:05.261Z,69.38
2019-04-06T11:48:00.968Z,74.62
2019-04-06T11:51:02.957Z,73.71
2019-04-06T11:53:54.721Z,73.28
2019-04-06T11:56:40.646Z,67.94
2019-04-06T11:59:48.897Z,68.74
2019-04-06T12:02:39.031Z,64.70
2019-04-06T12:05:40.259Z,66.74
2019-04-06T12:08:36.322Z,63.51
2019-04-06T12:11:49.527Z,66.11
2019-04-06T12:14:45.805Z,70.59
2019-04-06T12:17:31.126Z,70.13
2019-04-06T12:20:14.130Z,69.57
2019-04-06T12:23:25.247Z,66.01
2019-04-06T12:26:16.372Z,63.93
2019-04-06T12:29:18.539Z,67.59
2019-04-06T12:32:05.726Z,65.64
2019-04-06T12:35:10.780Z,66.63
2019-04-06T12:38:07.022Z,66.89
2019-04-06T12:41:02.530Z,63.66
2019-04-06T12:43:55.209Z,64.45
2019-04-06T12:46:42.052Z,64.86
2019-04-06T12:49:28.946Z,64.10
2019-04-06T12:52:10.743Z,62.23
2019-04-06T12:54:51.684Z,65.29
2019-04-06T12:57:31.935Z,64.92
2019-04-06T13:00:31.154Z,65.61
2019-04-06T13:03:23.423Z,64.34
2019-04-06T13:06:06.567Z,63.04
2019-04-06T13:08:54.815Z,65.77
2019-04-06T13:11:51.059Z,65.71
2019-04-06T13:14:30.780Z,64.96
2019-04-06T13:17:29.197Z,63.63
2019-04-06T13:20:25.520Z,64.29
2019-04-06T13:23:20.838Z,62.54
2019-04-06T13:26:09.770Z,63.42
2019-04-06T13:29:02.323Z,60.87
2019-04-06T13:31:49.699Z,62.43
2019-04-06T13:34:41.428Z,60.15
2019-04-06T13:37:32.566Z,59.48
2019-04-06T13:40:21.673Z,60.97
2019-04-06T13:43:10.692Z,58.79
2019-04-06T13:45:53.452Z,60.39
2019-04-06T13:48:49.554Z,56.62
2019-04-06T13:51:42.219Z,61.46
2019-04-06T13:54:33.800Z,63.29
2019-04-06T13:57:41.165Z,61.55
2019-04-06T14:00:52.659Z,58.48
2019-04-06T14:03:45.068Z,54.59
2019-04-06T14:06:34.666Z,58.70
2019-04-06T14:09:25.954Z,60.86
2019-04-06T14:12:07.095Z,62.86
2019-04-06T14:15:12.032Z,62.06
2019-04-06T14:18:18.753Z,61.11
2019-04-06T14:21:23.110Z,59.73
2019-04-06T14:24:07.075Z,60.20
2019-04-06T14:26:59.603Z,60.70
2019-04-06T14:29:48.544Z,58.87
2019-04-06T14:32:46.035Z,58.87
2019-04-06T14:35:35.342Z,62.92
2019-04-06T14:38:41.135Z,64.31
2019-04-06T14:41:43.219Z,60.66
2019-04-06T14:44:45.114Z,61.33
2019-04-06T14:47:56.138Z,58.99
2019-04-06T14:51:00.973Z,56.13
2019-04-06T14:53:43.487Z,57.75
2019-04-06T14:56:36.218Z,54.81
2019-04-06T14:59:23.478Z,53.99
2019-04-06T15:02:12.861Z,56.68
2019-04-06T15:04:55.827Z,55.12
2019-04-06T15:07:35.725Z,56.05
2019-04-06T15:10:28.927Z,56.05
2019-04-06T15:13:08.927Z,56.67
2019-04-06T15:16:01.948Z,53.69
2019-04-06T18:12:06.417Z,85.11
2019-04-06T18:14:40.445Z,84.96
2019-04-06T18:17:13.968Z,85.17
2019-04-06T18:19:51.140Z,85.94
2019-04-06T18:22:24.499Z,85.04
2019-04-06T18:24:58.493Z,86.20
2019-04-06T18:27:32.883Z,87.15
2019-04-06T18:30:07.366Z,87.18
2019-04-06T18:32:58.327Z,88.19
2019-04-06T18:35:23.373Z,89.31
2019-04-06T18:38:07.880Z,89.11
2019-04-06T18:40:41.503Z,90.00
2019-04-06T18:43:18.501Z,90.29
2019-04-06T18:45:52.135Z,89.30
2019-04-06T18:48:25.799Z,90.35
2019-04-06T18:50:58.391Z,89.81
2019-04-06T18:53:32.131Z,90.08
2019-04-06T18:56:07.100Z,89.67
2019-04-06T18:58:41.113Z,89.23
2019-04-06T19:01:14.612Z,89.57
2019-04-06T19:03:48.035Z,89.45
2019-04-06T19:06:21.580Z,90.62
2019-04-06T19:08:55.120Z,91.54
2019-04-06T19:11:29.426Z,91.72
2019-04-06T19:14:02.038Z,92.41
2019-04-06T19:16:35.713Z,92.96
2019-04-06T19:19:09.950Z,92.50
2019-04-06T19:21:43.554Z,91.90
2019-04-06T19:24:16.619Z,91.93
2019-04-06T19:26:50.245Z,92.26
2019-04-06T19:29:23.959Z,92.77
2019-04-06T19:31:58.355Z,92.50
2019-04-06T19:34:32.966Z,92.09
2019-04-06T19:37:08.752Z,91.77
2019-04-06T19:39:42.566Z,92.06
2019-04-06T19:42:16.464Z,91.97
2019-04-06T19:44:50.062Z,92.23
2019-04-06T19:47:23.588Z,92.63
2019-04-06T19:49:57.151Z,93.50
2019-04-06T19:52:30.351Z,93.42
2019-04-06T19:55:03.341Z,93.47
2019-04-06T19:57:37.283Z,93.55
2019-04-06T20:00:11.326Z,93.43
2019-04-06T20:02:44.774Z,94.26
2019-04-06T20:05:17.335Z,94.74
2019-04-06T20:07:51.448Z,94.44
2019-04-06T20:10:24.816Z,94.59
2019-04-06T20:12:57.766Z,94.70
2019-04-06T20:15:31.223Z,94.86
2019-04-06T20:18:04.519Z,93.72
2019-04-06T20:20:38.726Z,93.61
2019-04-06T20:23:12.122Z,93.82
2019-04-06T20:25:48.726Z,92.61
2019-04-06T20:28:22.225Z,94.13
2019-04-06T20:30:55.789Z,94.74
2019-04-06T20:33:28.459Z,94.51
2019-04-06T20:36:02.478Z,94.22
2019-04-06T20:38:35.748Z,94.75
2019-04-06T20:41:09.805Z,95.88
2019-04-06T20:43:43.077Z,95.73
2019-04-06T20:46:16.184Z,95.05
2019-04-06T20:48:49.374Z,94.64
2019-04-06T20:51:22.632Z,96.42
2019-04-06T20:53:56.351Z,97.86
2019-04-06T20:56:29.822Z,97.80
2019-04-06T20:59:03.966Z,97.45
2019-04-06T21:01:37.158Z,97.14
2019-04-06T21:04:10.478Z,96.19
2019-04-06T21:06:43.743Z,94.89
2019-04-06T21:09:17.113Z,93.02
2019-04-06T21:11:51.075Z,93.29
2019-04-06T21:14:24.345Z,94.87
2019-04-06T21:17:00.164Z,97.77
2019-04-06T21:19:33.187Z,98.89
2019-04-06T21:22:06.937Z,100.00
2019-04-06T21:24:40.352Z,100.00
2019-04-06T21:27:15.229Z,100.00
2019-04-06T21:29:49.615Z,100.00
2019-04-06T21:32:23.385Z,100.00
2019-04-06T21:34:57.259Z,100.00
2019-04-06T21:37:32.458Z,100.00
2019-04-06T21:40:06.902Z,100.00
2019-04-06T21:42:40.983Z,100.00
2019-04-06T21:45:14.132Z,100.00
2019-04-06T21:47:47.817Z,100.00
2019-04-06T21:50:21.910Z,100.00
2019-04-06T21:52:55.916Z,100.00
2019-04-06T21:55:28.639Z,100.00
2019-04-06T21:58:03.003Z,100.00
2019-04-06T22:00:52.504Z,100.00
2019-04-06T22:03:26.093Z,100.00
2019-04-06T22:05:59.942Z,100.00
2019-04-06T22:08:33.207Z,100.00
2019-04-06T22:11:07.228Z,100.00
2019-04-06T22:13:40.910Z,100.00
2019-04-06T22:16:14.054Z,100.00
2019-04-06T22:18:49.823Z,100.00
2019-04-06T22:21:23.864Z,100.00
2019-04-06T22:23:57.911Z,100.00
2019-04-06T22:26:30.733Z,100.00
2019-04-06T22:29:04.779Z,100.00
2019-04-06T22:31:38.254Z,100.00
2019-04-06T22:34:12.576Z,100.00
2019-04-06T22:36:45.852Z,100.00
2019-04-06T22:39:19.111Z,100.00
2019-04-06T22:41:53.684Z,100.00
2019-04-06T22:44:27.054Z,100.00
2019-04-06T22:47:00.855Z,100.00
2019-04-06T22:49:33.948Z,100.00
2019-04-06T22:52:07.114Z,100.00
2019-04-06T22:54:43.579Z,100.00
2019-04-06T22:57:17.164Z,100.00
2019-04-06T22:59:49.818Z,100.00
2019-04-06T23:02:22.931Z,100.00
2019-04-06T23:05:03.033Z,100.00
2019-04-06T23:07:36.207Z,100.00
2019-04-06T23:10:09.189Z,100.00
2019-04-06T23:12:43.887Z,100.00
2019-04-06T23:15:17.900Z,100.00
2019-04-06T23:17:51.463Z,100.00
2019-04-06T23:20:25.443Z,100.00
2019-04-06T23:22:59.444Z,100.00
2019-04-06T23:25:33.714Z,100.00
2019-04-06T23:28:07.064Z,100.00
2019-04-06T23:30:39.749Z,100.00
2019-04-06T23:33:13.264Z,100.00
2019-04-06T23:35:46.327Z,100.00
2019-04-06T23:38:20.116Z,100.00
2019-04-06T23:40:53.566Z,100.00
2019-04-06T23:43:26.771Z,100.00
2019-04-06T23:45:59.921Z,100.00
2019-04-06T23:48:32.919Z,100.00
2019-04-06T23:51:05.278Z,100.00
2019-04-06T23:53:38.793Z,100.00
2019-04-06T23:56:12.144Z,100.00
2019-04-06T23:58:47.040Z,100.00
